sensor_id;sensor_type;location;lat;lon;timestamp;pressure;altitude;pressure_sealevel;temperature;humidity
33625;BME280;19962;47.820;1.930;2023-06-22T00:02:00;100453.66;;;23.77;84.76
33625;BME280;19962;47.820;1.930;2023-06-22T00:04:27;100445.63;;;23.84;83.78
33625;BME280;19962;47.820;1.930;2023-06-22T00:06:53;100453.91;;;23.89;83.32
33625;BME280;19962;47.820;1.930;2023-06-22T00:09:19;100437.09;;;23.89;82.90
33625;BME280;19962;47.820;1.930;2023-06-22T00:11:45;100425.59;;;23.91;82.45
33625;BME280;19962;47.820;1.930;2023-06-22T00:14:11;100427.63;;;23.99;81.76
33625;BME280;19962;47.820;1.930;2023-06-22T00:16:37;100412.97;;;24.02;81.65
33625;BME280;19962;47.820;1.930;2023-06-22T00:19:04;100415.44;;;24.03;80.90
33625;BME280;19962;47.820;1.930;2023-06-22T00:21:30;100408.81;;;23.99;81.46
33625;BME280;19962;47.820;1.930;2023-06-22T00:23:56;100400.50;;;23.86;81.92
33625;BME280;19962;47.820;1.930;2023-06-22T00:26:23;100397.00;;;23.80;82.55
33625;BME280;19962;47.820;1.930;2023-06-22T00:28:49;100383.47;;;23.82;82.74
33625;BME280;19962;47.820;1.930;2023-06-22T00:31:15;100373.75;;;23.80;82.39
33625;BME280;19962;47.820;1.930;2023-06-22T00:33:41;100365.56;;;23.83;82.48
33625;BME280;19962;47.820;1.930;2023-06-22T00:36:07;100367.19;;;23.84;82.21
33625;BME280;19962;47.820;1.930;2023-06-22T00:38:34;100353.34;;;23.79;82.72
33625;BME280;19962;47.820;1.930;2023-06-22T00:41:00;100349.66;;;23.70;83.12
33625;BME280;19962;47.820;1.930;2023-06-22T00:43:26;100346.84;;;23.70;83.16
33625;BME280;19962;47.820;1.930;2023-06-22T00:45:52;100340.56;;;23.65;83.58
33625;BME280;19962;47.820;1.930;2023-06-22T00:48:22;100349.56;;;23.53;84.91
33625;BME280;19962;47.820;1.930;2023-06-22T00:50:48;100353.63;;;23.47;85.76
33625;BME280;19962;47.820;1.930;2023-06-22T00:53:16;100357.06;;;23.44;85.51
33625;BME280;19962;47.820;1.930;2023-06-22T00:55:45;100368.63;;;23.51;85.41
33625;BME280;19962;47.820;1.930;2023-06-22T00:58:13;100392.25;;;23.59;84.53
33625;BME280;19962;47.820;1.930;2023-06-22T01:00:40;100387.66;;;23.63;83.90
33625;BME280;19962;47.820;1.930;2023-06-22T01:03:07;100405.28;;;23.63;83.51
33625;BME280;19962;47.820;1.930;2023-06-22T01:05:38;100405.47;;;23.67;83.28
33625;BME280;19962;47.820;1.930;2023-06-22T01:08:33;100405.16;;;23.68;83.98
33625;BME280;19962;47.820;1.930;2023-06-22T01:11:28;100420.06;;;23.55;85.53
33625;BME280;19962;47.820;1.930;2023-06-22T01:14:00;100412.94;;;23.49;84.63
33625;BME280;19962;47.820;1.930;2023-06-22T01:16:35;100414.66;;;23.59;83.98
33625;BME280;19962;47.820;1.930;2023-06-22T01:21:47;100407.31;;;23.71;82.74
33625;BME280;19962;47.820;1.930;2023-06-22T01:29:42;100387.91;;;23.53;84.55
33625;BME280;19962;47.820;1.930;2023-06-22T01:32:10;100382.78;;;23.46;85.32
33625;BME280;19962;47.820;1.930;2023-06-22T01:34:38;100381.13;;;23.45;85.42
33625;BME280;19962;47.820;1.930;2023-06-22T01:37:07;100366.81;;;23.47;84.91
33625;BME280;19962;47.820;1.930;2023-06-22T01:39:34;100359.75;;;23.49;84.86
33625;BME280;19962;47.820;1.930;2023-06-22T01:42:00;100359.75;;;23.49;84.47
33625;BME280;19962;47.820;1.930;2023-06-22T01:44:28;100344.09;;;23.48;85.21
33625;BME280;19962;47.820;1.930;2023-06-22T01:46:55;100346.97;;;23.35;86.56
33625;BME280;19962;47.820;1.930;2023-06-22T01:49:21;100346.59;;;23.28;86.91
33625;BME280;19962;47.820;1.930;2023-06-22T01:51:48;100337.75;;;23.34;86.85
33625;BME280;19962;47.820;1.930;2023-06-22T01:54:14;100335.19;;;23.24;88.72
33625;BME280;19962;47.820;1.930;2023-06-22T01:56:40;100326.31;;;23.22;88.74
33625;BME280;19962;47.820;1.930;2023-06-22T02:02:09;100328.97;;;23.27;88.54
33625;BME280;19962;47.820;1.930;2023-06-22T02:04:46;100324.38;;;23.31;89.02
33625;BME280;19962;47.820;1.930;2023-06-22T02:07:15;100325.19;;;23.32;88.95
33625;BME280;19962;47.820;1.930;2023-06-22T02:09:45;100324.25;;;23.36;87.87
33625;BME280;19962;47.820;1.930;2023-06-22T02:12:16;100301.72;;;23.41;88.66
33625;BME280;19962;47.820;1.930;2023-06-22T02:14:44;100296.06;;;23.33;90.28
33625;BME280;19962;47.820;1.930;2023-06-22T02:17:10;100282.97;;;23.20;90.92
33625;BME280;19962;47.820;1.930;2023-06-22T02:19:37;100280.44;;;23.10;91.28
33625;BME280;19962;47.820;1.930;2023-06-22T02:22:04;100287.34;;;23.12;91.06
33625;BME280;19962;47.820;1.930;2023-06-22T02:24:30;100311.16;;;23.23;90.23
33625;BME280;19962;47.820;1.930;2023-06-22T02:27:02;100329.47;;;23.29;90.88
33625;BME280;19962;47.820;1.930;2023-06-22T02:29:28;100327.19;;;23.31;89.95
33625;BME280;19962;47.820;1.930;2023-06-22T02:31:55;100304.09;;;23.26;91.72
33625;BME280;19962;47.820;1.930;2023-06-22T02:34:22;100305.06;;;23.21;92.61
33625;BME280;19962;47.820;1.930;2023-06-22T02:36:49;100298.94;;;23.19;92.97
33625;BME280;19962;47.820;1.930;2023-06-22T02:39:22;100306.59;;;23.14;92.90
33625;BME280;19962;47.820;1.930;2023-06-22T02:41:53;100302.84;;;23.18;92.87
33625;BME280;19962;47.820;1.930;2023-06-22T02:44:19;100321.84;;;23.21;92.86
33625;BME280;19962;47.820;1.930;2023-06-22T02:46:47;100328.56;;;23.20;92.69
33625;BME280;19962;47.820;1.930;2023-06-22T02:49:13;100336.97;;;23.20;93.21
33625;BME280;19962;47.820;1.930;2023-06-22T02:51:41;100339.19;;;23.10;94.10
33625;BME280;19962;47.820;1.930;2023-06-22T02:54:07;100335.00;;;23.21;92.68
33625;BME280;19962;47.820;1.930;2023-06-22T02:56:33;100327.53;;;23.16;94.00
33625;BME280;19962;47.820;1.930;2023-06-22T02:58:59;100327.75;;;23.20;94.07
33625;BME280;19962;47.820;1.930;2023-06-22T03:01:29;100321.00;;;23.21;93.18
33625;BME280;19962;47.820;1.930;2023-06-22T03:03:56;100313.81;;;23.28;93.22
33625;BME280;19962;47.820;1.930;2023-06-22T03:06:23;100314.44;;;23.25;92.31
33625;BME280;19962;47.820;1.930;2023-06-22T03:08:50;100314.44;;;23.25;92.14
33625;BME280;19962;47.820;1.930;2023-06-22T03:11:16;100303.47;;;23.29;91.23
33625;BME280;19962;47.820;1.930;2023-06-22T03:13:43;100319.81;;;23.35;91.65
33625;BME280;19962;47.820;1.930;2023-06-22T03:16:09;100319.41;;;23.28;91.36
33625;BME280;19962;47.820;1.930;2023-06-22T03:18:35;100329.84;;;23.36;92.23
33625;BME280;19962;47.820;1.930;2023-06-22T03:21:01;100339.91;;;23.37;91.32
33625;BME280;19962;47.820;1.930;2023-06-22T03:23:28;100353.25;;;23.40;90.25
33625;BME280;19962;47.820;1.930;2023-06-22T03:25:54;100357.56;;;23.46;89.53
33625;BME280;19962;47.820;1.930;2023-06-22T03:28:23;100361.84;;;23.44;89.47
33625;BME280;19962;47.820;1.930;2023-06-22T03:30:49;100369.91;;;23.45;89.58
33625;BME280;19962;47.820;1.930;2023-06-22T03:33:15;100369.91;;;23.45;89.57
33625;BME280;19962;47.820;1.930;2023-06-22T03:35:41;100371.38;;;23.43;90.25
33625;BME280;19962;47.820;1.930;2023-06-22T03:38:08;100360.00;;;23.39;90.07
33625;BME280;19962;47.820;1.930;2023-06-22T03:40:34;100357.41;;;23.43;89.35
33625;BME280;19962;47.820;1.930;2023-06-22T03:43:00;100340.56;;;23.34;90.42
33625;BME280;19962;47.820;1.930;2023-06-22T03:45:26;100338.88;;;23.33;89.78
33625;BME280;19962;47.820;1.930;2023-06-22T03:47:52;100322.75;;;23.30;90.48
33625;BME280;19962;47.820;1.930;2023-06-22T03:50:19;100307.84;;;23.21;91.53
33625;BME280;19962;47.820;1.930;2023-06-22T03:52:46;100300.19;;;23.13;92.55
33625;BME280;19962;47.820;1.930;2023-06-22T03:55:12;100288.88;;;23.18;91.99
33625;BME280;19962;47.820;1.930;2023-06-22T03:57:38;100279.22;;;23.24;92.57
33625;BME280;19962;47.820;1.930;2023-06-22T04:00:05;100277.16;;;23.16;93.72
33625;BME280;19962;47.820;1.930;2023-06-22T04:02:32;100283.16;;;23.01;95.01
33625;BME280;19962;47.820;1.930;2023-06-22T04:04:58;100280.97;;;22.98;96.15
33625;BME280;19962;47.820;1.930;2023-06-22T04:07:24;100293.25;;;22.89;96.95
33625;BME280;19962;47.820;1.930;2023-06-22T04:09:50;100291.84;;;23.00;95.70
33625;BME280;19962;47.820;1.930;2023-06-22T04:12:16;100296.50;;;23.04;94.97
33625;BME280;19962;47.820;1.930;2023-06-22T04:14:42;100299.56;;;22.94;96.40
33625;BME280;19962;47.820;1.930;2023-06-22T04:17:08;100309.53;;;22.87;97.10
33625;BME280;19962;47.820;1.930;2023-06-22T04:19:35;100308.84;;;22.81;97.44
33625;BME280;19962;47.820;1.930;2023-06-22T04:22:01;100304.28;;;22.85;96.75
33625;BME280;19962;47.820;1.930;2023-06-22T04:24:27;100296.25;;;22.92;96.33
33625;BME280;19962;47.820;1.930;2023-06-22T04:26:53;100283.53;;;22.86;96.96
33625;BME280;19962;47.820;1.930;2023-06-22T04:29:21;100277.53;;;22.79;97.28
33625;BME280;19962;47.820;1.930;2023-06-22T04:31:56;100278.38;;;22.80;97.10
33625;BME280;19962;47.820;1.930;2023-06-22T04:34:24;100268.22;;;22.84;96.28
33625;BME280;19962;47.820;1.930;2023-06-22T04:36:53;100272.56;;;22.76;97.20
33625;BME280;19962;47.820;1.930;2023-06-22T04:39:19;100265.34;;;22.75;96.57
33625;BME280;19962;47.820;1.930;2023-06-22T04:41:46;100270.25;;;22.70;96.69
33625;BME280;19962;47.820;1.930;2023-06-22T04:44:19;100266.66;;;22.78;96.26
33625;BME280;19962;47.820;1.930;2023-06-22T04:46:56;100260.63;;;22.84;95.26
33625;BME280;19962;47.820;1.930;2023-06-22T04:49:26;100257.47;;;22.77;96.03
33625;BME280;19962;47.820;1.930;2023-06-22T04:52:06;100258.09;;;22.74;96.67
33625;BME280;19962;47.820;1.930;2023-06-22T04:54:33;100249.41;;;22.76;96.24
33625;BME280;19962;47.820;1.930;2023-06-22T04:57:04;100255.94;;;22.71;96.63
33625;BME280;19962;47.820;1.930;2023-06-22T04:59:36;100254.59;;;22.69;96.47
33625;BME280;19962;47.820;1.930;2023-06-22T05:02:03;100258.94;;;22.75;95.99
33625;BME280;19962;47.820;1.930;2023-06-22T05:04:29;100242.34;;;22.78;95.58
33625;BME280;19962;47.820;1.930;2023-06-22T05:06:59;100245.44;;;22.77;95.76
33625;BME280;19962;47.820;1.930;2023-06-22T05:09:29;100242.50;;;22.60;97.47
33625;BME280;19962;47.820;1.930;2023-06-22T05:11:55;100247.03;;;22.69;97.07
33625;BME280;19962;47.820;1.930;2023-06-22T05:14:26;100247.53;;;22.71;96.28
33625;BME280;19962;47.820;1.930;2023-06-22T05:16:52;100244.94;;;22.75;95.47
33625;BME280;19962;47.820;1.930;2023-06-22T05:19:18;100250.03;;;22.73;95.42
33625;BME280;19962;47.820;1.930;2023-06-22T05:21:44;100246.50;;;22.67;96.01
33625;BME280;19962;47.820;1.930;2023-06-22T05:24:11;100236.34;;;22.71;95.69
33625;BME280;19962;47.820;1.930;2023-06-22T05:26:37;100235.22;;;22.72;95.71
33625;BME280;19962;47.820;1.930;2023-06-22T05:29:04;100239.13;;;22.49;96.67
33625;BME280;19962;47.820;1.930;2023-06-22T05:31:30;100240.69;;;22.42;97.47
33625;BME280;19962;47.820;1.930;2023-06-22T05:33:57;100232.72;;;22.35;98.13
33625;BME280;19962;47.820;1.930;2023-06-22T05:36:23;100239.53;;;22.43;97.14
33625;BME280;19962;47.820;1.930;2023-06-22T05:38:55;100239.13;;;22.49;96.76
33625;BME280;19962;47.820;1.930;2023-06-22T05:41:22;100245.25;;;22.51;96.15
33625;BME280;19962;47.820;1.930;2023-06-22T05:43:48;100242.56;;;22.46;95.98
33625;BME280;19962;47.820;1.930;2023-06-22T05:46:14;100249.06;;;22.55;95.22
33625;BME280;19962;47.820;1.930;2023-06-22T05:48:40;100248.22;;;22.55;95.41
33625;BME280;19962;47.820;1.930;2023-06-22T05:51:06;100254.53;;;22.60;94.77
33625;BME280;19962;47.820;1.930;2023-06-22T05:53:32;100250.47;;;22.66;94.22
33625;BME280;19962;47.820;1.930;2023-06-22T05:55:58;100243.47;;;22.55;94.10
33625;BME280;19962;47.820;1.930;2023-06-22T05:58:25;100237.75;;;22.60;93.79
33625;BME280;19962;47.820;1.930;2023-06-22T06:00:51;100233.75;;;22.53;93.89
33625;BME280;19962;47.820;1.930;2023-06-22T06:03:17;100241.19;;;22.57;93.59
33625;BME280;19962;47.820;1.930;2023-06-22T06:05:43;100236.44;;;22.58;93.71
33625;BME280;19962;47.820;1.930;2023-06-22T06:08:10;100238.81;;;22.51;94.03
33625;BME280;19962;47.820;1.930;2023-06-22T06:10:37;100239.53;;;22.56;93.99
33625;BME280;19962;47.820;1.930;2023-06-22T06:13:03;100239.53;;;22.56;93.45
33625;BME280;19962;47.820;1.930;2023-06-22T06:15:31;100234.97;;;22.60;93.20
33625;BME280;19962;47.820;1.930;2023-06-22T06:17:57;100236.25;;;22.54;93.33
33625;BME280;19962;47.820;1.930;2023-06-22T06:20:24;100246.47;;;22.59;93.58
33625;BME280;19962;47.820;1.930;2023-06-22T06:22:51;100252.00;;;22.50;94.15
33625;BME280;19962;47.820;1.930;2023-06-22T06:25:17;100247.41;;;22.41;94.96
33625;BME280;19962;47.820;1.930;2023-06-22T06:27:50;100260.91;;;22.25;96.12
33625;BME280;19962;47.820;1.930;2023-06-22T06:30:18;100261.94;;;22.29;95.73
33625;BME280;19962;47.820;1.930;2023-06-22T06:32:46;100266.81;;;22.37;95.19
33625;BME280;19962;47.820;1.930;2023-06-22T06:35:13;100264.50;;;22.39;94.87
33625;BME280;19962;47.820;1.930;2023-06-22T06:37:43;100268.03;;;22.31;94.96
33625;BME280;19962;47.820;1.930;2023-06-22T06:40:10;100266.19;;;22.27;95.74
33625;BME280;19962;47.820;1.930;2023-06-22T06:42:41;100261.75;;;22.26;95.85
33625;BME280;19962;47.820;1.930;2023-06-22T06:45:15;100265.78;;;22.33;94.81
33625;BME280;19962;47.820;1.930;2023-06-22T06:47:41;100270.63;;;22.41;94.43
33625;BME280;19962;47.820;1.930;2023-06-22T06:50:08;100264.69;;;22.43;94.34
33625;BME280;19962;47.820;1.930;2023-06-22T06:52:34;100265.34;;;22.40;94.41
33625;BME280;19962;47.820;1.930;2023-06-22T06:55:01;100267.75;;;22.46;93.74
33625;BME280;19962;47.820;1.930;2023-06-22T06:57:27;100267.09;;;22.49;93.29
33625;BME280;19962;47.820;1.930;2023-06-22T06:59:55;100272.06;;;22.52;92.77
33625;BME280;19962;47.820;1.930;2023-06-22T07:02:22;100275.16;;;22.51;92.52
33625;BME280;19962;47.820;1.930;2023-06-22T07:04:49;100268.00;;;22.45;92.64
33625;BME280;19962;47.820;1.930;2023-06-22T07:07:15;100268.94;;;22.40;92.89
33625;BME280;19962;47.820;1.930;2023-06-22T07:09:41;100264.22;;;22.27;94.18
33625;BME280;19962;47.820;1.930;2023-06-22T07:12:07;100259.28;;;22.24;94.67
33625;BME280;19962;47.820;1.930;2023-06-22T07:14:34;100261.34;;;22.32;94.91
33625;BME280;19962;47.820;1.930;2023-06-22T07:17:00;100244.56;;;22.32;94.66
33625;BME280;19962;47.820;1.930;2023-06-22T07:19:27;100241.16;;;22.22;95.44
33625;BME280;19962;47.820;1.930;2023-06-22T07:21:54;100237.28;;;22.31;94.60
33625;BME280;19962;47.820;1.930;2023-06-22T07:24:21;100230.84;;;22.44;93.60
33625;BME280;19962;47.820;1.930;2023-06-22T07:26:51;100237.38;;;22.40;93.99
33625;BME280;19962;47.820;1.930;2023-06-22T07:29:20;100233.56;;;22.36;94.35
33625;BME280;19962;47.820;1.930;2023-06-22T07:31:49;100231.22;;;22.29;95.70
33625;BME280;19962;47.820;1.930;2023-06-22T07:34:16;100229.03;;;22.26;95.70
33625;BME280;19962;47.820;1.930;2023-06-22T07:36:42;100236.78;;;22.29;95.85
33625;BME280;19962;47.820;1.930;2023-06-22T07:39:08;100234.56;;;22.18;96.62
33625;BME280;19962;47.820;1.930;2023-06-22T07:41:35;100242.50;;;22.24;95.86
33625;BME280;19962;47.820;1.930;2023-06-22T07:44:02;100234.00;;;22.29;95.63
33625;BME280;19962;47.820;1.930;2023-06-22T07:46:29;100254.47;;;22.38;95.15
33625;BME280;19962;47.820;1.930;2023-06-22T07:48:56;100251.19;;;22.36;94.97
33625;BME280;19962;47.820;1.930;2023-06-22T07:51:23;100256.78;;;22.36;96.21
33625;BME280;19962;47.820;1.930;2023-06-22T07:53:49;100262.44;;;22.31;96.73
33625;BME280;19962;47.820;1.930;2023-06-22T07:56:15;100270.22;;;22.48;95.72
33625;BME280;19962;47.820;1.930;2023-06-22T07:58:46;100266.38;;;22.44;95.91
33625;BME280;19962;47.820;1.930;2023-06-22T08:01:15;100263.84;;;22.20;97.52
33625;BME280;19962;47.820;1.930;2023-06-22T08:03:42;100285.72;;;22.40;96.34
33625;BME280;19962;47.820;1.930;2023-06-22T08:06:09;100291.31;;;22.40;95.80
33625;BME280;19962;47.820;1.930;2023-06-22T08:08:36;100296.06;;;22.53;95.06
33625;BME280;19962;47.820;1.930;2023-06-22T08:11:02;100301.44;;;22.63;94.75
33625;BME280;19962;47.820;1.930;2023-06-22T08:13:28;100310.97;;;22.62;94.89
33625;BME280;19962;47.820;1.930;2023-06-22T08:15:55;100329.16;;;22.73;94.27
33625;BME280;19962;47.820;1.930;2023-06-22T08:18:21;100322.44;;;22.74;94.39
33625;BME280;19962;47.820;1.930;2023-06-22T08:20:47;100333.00;;;22.77;93.25
33625;BME280;19962;47.820;1.930;2023-06-22T08:23:13;100340.50;;;22.90;92.53
33625;BME280;19962;47.820;1.930;2023-06-22T08:25:39;100338.97;;;23.06;91.55
33625;BME280;19962;47.820;1.930;2023-06-22T08:28:05;100345.78;;;23.14;91.26
33625;BME280;19962;47.820;1.930;2023-06-22T08:30:31;100352.41;;;23.18;90.47
33625;BME280;19962;47.820;1.930;2023-06-22T08:32:57;100361.34;;;23.20;90.87
33625;BME280;19962;47.820;1.930;2023-06-22T08:35:24;100364.66;;;23.22;90.61
33625;BME280;19962;47.820;1.930;2023-06-22T08:37:50;100373.88;;;23.22;91.11
33625;BME280;19962;47.820;1.930;2023-06-22T08:40:21;100379.47;;;23.22;91.07
33625;BME280;19962;47.820;1.930;2023-06-22T08:42:47;100385.69;;;23.19;91.75
33625;BME280;19962;47.820;1.930;2023-06-22T08:45:14;100390.66;;;23.22;91.41
33625;BME280;19962;47.820;1.930;2023-06-22T08:47:41;100390.16;;;23.20;91.01
33625;BME280;19962;47.820;1.930;2023-06-22T08:50:08;100402.28;;;23.16;91.21
33625;BME280;19962;47.820;1.930;2023-06-22T08:52:35;100397.25;;;23.04;91.35
33625;BME280;19962;47.820;1.930;2023-06-22T08:55:01;100405.94;;;23.03;91.29
33625;BME280;19962;47.820;1.930;2023-06-22T08:57:28;100415.88;;;23.09;90.61
33625;BME280;19962;47.820;1.930;2023-06-22T08:59:54;100410.91;;;23.06;90.58
33625;BME280;19962;47.820;1.930;2023-06-22T09:02:24;100415.28;;;22.98;90.79
33625;BME280;19962;47.820;1.930;2023-06-22T09:04:50;100405.97;;;22.89;91.18
33625;BME280;19962;47.820;1.930;2023-06-22T09:07:21;100424.13;;;22.78;91.57
33625;BME280;19962;47.820;1.930;2023-06-22T09:09:49;100424.56;;;22.58;93.05
33625;BME280;19962;47.820;1.930;2023-06-22T09:12:15;100422.19;;;22.65;92.76
33625;BME280;19962;47.820;1.930;2023-06-22T09:14:41;100432.66;;;22.73;92.28
33625;BME280;19962;47.820;1.930;2023-06-22T09:17:07;100441.66;;;22.84;91.51
33625;BME280;19962;47.820;1.930;2023-06-22T09:19:33;100434.16;;;22.93;90.89
33625;BME280;19962;47.820;1.930;2023-06-22T09:22:00;100437.28;;;22.78;91.29
33625;BME280;19962;47.820;1.930;2023-06-22T09:24:26;100440.13;;;22.64;92.07
33625;BME280;19962;47.820;1.930;2023-06-22T09:26:52;100449.22;;;22.56;92.36
33625;BME280;19962;47.820;1.930;2023-06-22T09:29:19;100453.44;;;22.40;93.47
33625;BME280;19962;47.820;1.930;2023-06-22T09:31:45;100450.78;;;22.49;93.13
33625;BME280;19962;47.820;1.930;2023-06-22T09:34:11;100458.03;;;22.63;92.97
33625;BME280;19962;47.820;1.930;2023-06-22T09:36:37;100460.41;;;22.56;93.08
33625;BME280;19962;47.820;1.930;2023-06-22T09:39:05;100461.16;;;22.62;92.82
33625;BME280;19962;47.820;1.930;2023-06-22T09:41:32;100463.63;;;22.63;92.78
33625;BME280;19962;47.820;1.930;2023-06-22T09:43:58;100460.31;;;22.75;92.34
33625;BME280;19962;47.820;1.930;2023-06-22T09:46:24;100463.50;;;22.82;91.71
33625;BME280;19962;47.820;1.930;2023-06-22T09:48:51;100468.34;;;22.90;91.75
33625;BME280;19962;47.820;1.930;2023-06-22T09:51:17;100466.47;;;22.99;90.71
33625;BME280;19962;47.820;1.930;2023-06-22T09:53:45;100465.41;;;23.22;89.72
33625;BME280;19962;47.820;1.930;2023-06-22T09:56:12;100463.75;;;23.21;88.76
33625;BME280;19962;47.820;1.930;2023-06-22T09:58:45;100461.66;;;23.13;89.44
33625;BME280;19962;47.820;1.930;2023-06-22T10:01:12;100467.31;;;22.99;90.00
33625;BME280;19962;47.820;1.930;2023-06-22T10:03:40;100461.72;;;22.99;90.05
33625;BME280;19962;47.820;1.930;2023-06-22T10:06:08;100470.84;;;22.91;90.72
33625;BME280;19962;47.820;1.930;2023-06-22T10:08:35;100476.94;;;22.93;90.66
33625;BME280;19962;47.820;1.930;2023-06-22T10:11:05;100478.69;;;23.03;89.95
33625;BME280;19962;47.820;1.930;2023-06-22T10:13:31;100468.78;;;22.97;90.36
33625;BME280;19962;47.820;1.930;2023-06-22T10:15:57;100475.59;;;23.04;89.78
33625;BME280;19962;47.820;1.930;2023-06-22T10:18:23;100486.84;;;23.13;89.66
33625;BME280;19962;47.820;1.930;2023-06-22T10:20:50;100483.13;;;23.17;89.55
33625;BME280;19962;47.820;1.930;2023-06-22T10:23:18;100492.78;;;23.25;88.69
33625;BME280;19962;47.820;1.930;2023-06-22T10:25:44;100495.78;;;23.15;89.32
33625;BME280;19962;47.820;1.930;2023-06-22T10:28:10;100504.38;;;23.05;89.77
33625;BME280;19962;47.820;1.930;2023-06-22T10:30:36;100512.28;;;23.03;90.11
33625;BME280;19962;47.820;1.930;2023-06-22T10:33:02;100523.56;;;22.84;90.71
33625;BME280;19962;47.820;1.930;2023-06-22T10:35:28;100519.66;;;22.85;91.47
33625;BME280;19962;47.820;1.930;2023-06-22T10:37:55;100518.91;;;22.93;91.43
33625;BME280;19962;47.820;1.930;2023-06-22T10:40:22;100517.88;;;23.03;91.01
33625;BME280;19962;47.820;1.930;2023-06-22T10:42:48;100527.91;;;23.17;90.51
33625;BME280;19962;47.820;1.930;2023-06-22T10:45:16;100537.53;;;23.11;90.56
33625;BME280;19962;47.820;1.930;2023-06-22T10:47:42;100539.22;;;23.26;90.35
33625;BME280;19962;47.820;1.930;2023-06-22T10:50:08;100544.16;;;23.42;89.07
33625;BME280;19962;47.820;1.930;2023-06-22T10:52:35;100546.03;;;23.33;88.48
33625;BME280;19962;47.820;1.930;2023-06-22T10:55:01;100533.72;;;23.34;88.62
33625;BME280;19962;47.820;1.930;2023-06-22T10:57:27;100536.28;;;23.31;88.90
33625;BME280;19962;47.820;1.930;2023-06-22T10:59:53;100536.53;;;23.34;89.13
33625;BME280;19962;47.820;1.930;2023-06-22T11:02:19;100547.25;;;23.41;89.06
33625;BME280;19962;47.820;1.930;2023-06-22T11:04:45;100547.25;;;23.41;89.02
33625;BME280;19962;47.820;1.930;2023-06-22T11:07:12;100549.25;;;23.40;88.67
33625;BME280;19962;47.820;1.930;2023-06-22T11:09:38;100557.44;;;23.37;89.53
33625;BME280;19962;47.820;1.930;2023-06-22T11:12:05;100562.41;;;23.40;89.64
33625;BME280;19962;47.820;1.930;2023-06-22T11:14:32;100561.38;;;23.36;90.19
33625;BME280;19962;47.820;1.930;2023-06-22T11:16:59;100565.63;;;23.33;90.01
33625;BME280;19962;47.820;1.930;2023-06-22T11:19:25;100572.38;;;23.32;90.18
33625;BME280;19962;47.820;1.930;2023-06-22T11:21:51;100576.44;;;23.26;90.97
33625;BME280;19962;47.820;1.930;2023-06-22T11:24:18;100582.97;;;23.35;91.01
33625;BME280;19962;47.820;1.930;2023-06-22T11:26:44;100573.84;;;23.30;90.35
33625;BME280;19962;47.820;1.930;2023-06-22T11:29:10;100583.56;;;23.32;89.87
33625;BME280;19962;47.820;1.930;2023-06-22T11:31:36;100586.69;;;23.44;88.88
33625;BME280;19962;47.820;1.930;2023-06-22T11:34:03;100589.75;;;23.56;87.65
33625;BME280;19962;47.820;1.930;2023-06-22T11:36:30;100590.38;;;23.53;88.10
33625;BME280;19962;47.820;1.930;2023-06-22T11:38:58;100593.25;;;23.62;87.90
33625;BME280;19962;47.820;1.930;2023-06-22T11:41:24;100596.78;;;23.67;87.61
33625;BME280;19962;47.820;1.930;2023-06-22T11:43:51;100594.81;;;23.68;87.59
33625;BME280;19962;47.820;1.930;2023-06-22T11:46:17;100587.09;;;23.73;87.06
33625;BME280;19962;47.820;1.930;2023-06-22T11:48:43;100602.13;;;23.77;86.95
33625;BME280;19962;47.820;1.930;2023-06-22T11:51:09;100588.66;;;23.79;86.42
33625;BME280;19962;47.820;1.930;2023-06-22T11:53:35;100598.09;;;23.83;86.07
33625;BME280;19962;47.820;1.930;2023-06-22T11:56:01;100597.56;;;23.81;85.42
33625;BME280;19962;47.820;1.930;2023-06-22T11:58:28;100613.63;;;23.89;85.50
33625;BME280;19962;47.820;1.930;2023-06-22T12:00:54;100610.84;;;23.76;85.90
33625;BME280;19962;47.820;1.930;2023-06-22T12:03:20;100599.88;;;23.79;85.85
33625;BME280;19962;47.820;1.930;2023-06-22T12:05:50;100598.72;;;23.80;85.16
33625;BME280;19962;47.820;1.930;2023-06-22T12:08:18;100604.44;;;23.75;84.24
33625;BME280;19962;47.820;1.930;2023-06-22T12:10:44;100608.34;;;23.88;84.03
33625;BME280;19962;47.820;1.930;2023-06-22T12:13:10;100614.56;;;23.85;84.17
33625;BME280;19962;47.820;1.930;2023-06-22T12:15:36;100619.34;;;23.84;83.96
33625;BME280;19962;47.820;1.930;2023-06-22T12:18:03;100616.44;;;23.89;83.49
33625;BME280;19962;47.820;1.930;2023-06-22T12:20:29;100613.84;;;23.93;83.76
33625;BME280;19962;47.820;1.930;2023-06-22T12:22:55;100608.94;;;23.85;84.31
33625;BME280;19962;47.820;1.930;2023-06-22T12:25:24;100616.47;;;23.76;85.35
33625;BME280;19962;47.820;1.930;2023-06-22T12:27:50;100620.03;;;23.68;85.21
33625;BME280;19962;47.820;1.930;2023-06-22T12:30:17;100615.16;;;23.60;85.74
33625;BME280;19962;47.820;1.930;2023-06-22T12:32:43;100628.63;;;23.58;85.39
33625;BME280;19962;47.820;1.930;2023-06-22T12:35:09;100628.44;;;23.41;85.83
33625;BME280;19962;47.820;1.930;2023-06-22T12:37:40;100643.91;;;23.38;85.92
33625;BME280;19962;47.820;1.930;2023-06-22T12:40:07;100637.31;;;23.34;86.43
33625;BME280;19962;47.820;1.930;2023-06-22T12:42:34;100640.09;;;23.34;86.14
33625;BME280;19962;47.820;1.930;2023-06-22T12:45:00;100642.69;;;23.44;85.95
33625;BME280;19962;47.820;1.930;2023-06-22T12:47:26;100644.41;;;23.54;85.59
33625;BME280;19962;47.820;1.930;2023-06-22T12:49:52;100652.00;;;23.53;85.84
33625;BME280;19962;47.820;1.930;2023-06-22T12:52:18;100648.47;;;23.61;84.92
33625;BME280;19962;47.820;1.930;2023-06-22T12:54:44;100648.47;;;23.61;84.67
33625;BME280;19962;47.820;1.930;2023-06-22T12:57:10;100651.78;;;23.63;84.20
33625;BME280;19962;47.820;1.930;2023-06-22T12:59:36;100651.56;;;23.60;84.00
33625;BME280;19962;47.820;1.930;2023-06-22T13:02:03;100652.19;;;23.57;84.06